Sunderland, Massachusetts
Current Conditions -  °F | °C
As of 6:52 AM on Thursday 23 Oct 2014 (Local Time) from KORE Reporting Station
Heavy Rain Heavy Rain  
Wind Chill: 43°   Ceiling: 4900
Heat Index: 48°   Visibility: 4mi
Dew Point: 46°   Wind: 10mph
Humidity: 93%   Direction: 350°N
Pressure: 29.77"   Gusts: NA
Location:  42.47°N, 72.58°W
Report Text: KORE 231052Z AUTO 35009KT 4SM +RA BR OVC049 09/08 A2977 RMK AO2 SLP083 P0021 T00890078
Loading
Personal Weather Stations






























Interactive Weather Map
Tropical Storm Tracking
New forecast layout! Learn more

10-Day Weather Forecast

Advertisements
Track Severe Weather on mobile